Alta, Wyoming
Current Conditions -  °F | °C
As of 5:56 PM on Sunday 23 Nov 2014 (Local Time) from KDIJ Reporting Station
Overcast Overcast  
Wind Chill: 15°   Ceiling: 2800
Heat Index: 25°   Visibility: 10mi
Dew Point: 22°   Wind: 10mph
Humidity: 88%   Direction: 180°S
Pressure: 30.08"   Gusts: NA
Location:  43.77°N, 110.98°W
Report Text: KDIJ 240056Z AUTO 18009KT 10SM OVC028 M04/M06 A3008 RMK AO2 T10381055 SNE28 P0000 SLP205
Loading
Personal Weather Stations






























Interactive Weather Map New forecast layout! Learn more

10-Day Weather Forecast

Advertisements
Track Severe Weather on mobile